createdAt,value
2024-01-06T00:00:03.530Z,98297.88
2024-01-06T00:02:30.021Z,98297.56
2024-01-06T00:04:56.523Z,98287.09
2024-01-06T00:07:23.018Z,98288.91
2024-01-06T00:09:49.720Z,98283.97
2024-01-06T00:12:16.378Z,98295.94
2024-01-06T00:14:45.033Z,98289.13
2024-01-06T00:17:11.928Z,98299.75
2024-01-06T00:19:38.534Z,98286.50
2024-01-06T00:22:05.120Z,98290.38
2024-01-06T00:24:32.071Z,98290.09
2024-01-06T00:26:58.625Z,98290.91
2024-01-06T00:29:25.143Z,98299.22
2024-01-06T00:31:54.245Z,98289.59
2024-01-06T00:34:20.864Z,98293.28
2024-01-06T00:36:47.454Z,98289.00
2024-01-06T00:39:14.036Z,98284.22
2024-01-06T00:41:40.570Z,98287.28
2024-01-06T00:44:07.056Z,98288.16
2024-01-06T00:46:33.579Z,98286.06
2024-01-06T00:49:00.698Z,98282.09
2024-01-06T00:51:27.346Z,98281.84
2024-01-06T00:53:54.484Z,98280.50
2024-01-06T00:56:21.021Z,98277.50
2024-01-06T00:58:47.573Z,98279.69
2024-01-06T01:01:14.211Z,98272.22
2024-01-06T01:03:41.021Z,98282.44
2024-01-06T01:06:07.593Z,98282.44
2024-01-06T01:08:34.120Z,98281.84
2024-01-06T01:11:00.827Z,98297.94
2024-01-06T01:13:27.525Z,98286.63
2024-01-06T01:15:54.056Z,98289.81
2024-01-06T01:18:20.789Z,98294.59
2024-01-06T01:20:47.626Z,98297.50
2024-01-06T01:23:14.208Z,98294.25
2024-01-06T01:25:40.752Z,98307.06
2024-01-06T01:28:07.258Z,98303.50
2024-01-06T01:30:34.015Z,98310.19
2024-01-06T01:33:00.792Z,98319.31
2024-01-06T01:35:27.463Z,98319.50
2024-01-06T01:37:53.962Z,98326.41
2024-01-06T01:40:20.441Z,98321.91
2024-01-06T01:42:47.031Z,98335.81
2024-01-06T01:45:13.829Z,98338.28
2024-01-06T01:47:40.932Z,98350.91
2024-01-06T01:50:08.908Z,98340.88
2024-01-06T01:52:36.955Z,98341.63
2024-01-06T01:55:03.839Z,98348.78
2024-01-06T01:57:30.542Z,98353.56
2024-01-06T01:59:58.054Z,98351.47
2024-01-06T02:02:24.751Z,98352.97
2024-01-06T02:04:51.447Z,98351.81
2024-01-06T02:07:18.198Z,98347.16
2024-01-06T02:09:44.746Z,98349.66
2024-01-06T02:12:11.328Z,98350.22
2024-01-06T02:14:37.827Z,98354.00
2024-01-06T02:17:04.493Z,98359.34
2024-01-06T02:19:31.187Z,98347.63
2024-01-06T02:21:57.752Z,98354.50
2024-01-06T02:24:24.363Z,98362.53
2024-01-06T02:26:51.686Z,98368.72
2024-01-06T02:29:18.430Z,98373.28
2024-01-06T02:31:45.246Z,98375.97
2024-01-06T02:34:12.005Z,98362.53
2024-01-06T02:36:38.693Z,98369.88
2024-01-06T02:39:05.324Z,98373.94
2024-01-06T02:41:31.968Z,98379.03
2024-01-06T02:43:58.510Z,98388.44
2024-01-06T02:46:25.247Z,98383.09
2024-01-06T02:48:51.952Z,98380.63
2024-01-06T02:51:18.653Z,98386.00
2024-01-06T02:53:45.229Z,98392.72
2024-01-06T02:56:13.067Z,98390.53
2024-01-06T02:58:40.397Z,98393.72
2024-01-06T03:01:07.313Z,98388.88
2024-01-06T03:03:34.179Z,98393.16
2024-01-06T03:06:01.143Z,98396.38
2024-01-06T03:08:27.997Z,98399.75
2024-01-06T03:10:54.550Z,98400.06
2024-01-06T03:13:21.375Z,98399.47
2024-01-06T03:15:48.197Z,98411.19
2024-01-06T03:18:14.942Z,98406.94
2024-01-06T03:20:41.594Z,98405.03
2024-01-06T03:23:08.197Z,98405.59
2024-01-06T03:25:34.675Z,98409.34
2024-01-06T03:28:01.178Z,98404.25
2024-01-06T03:30:27.851Z,98399.38
2024-01-06T03:32:54.495Z,98398.59
2024-01-06T03:35:21.099Z,98396.97
2024-01-06T03:37:47.698Z,98405.03
2024-01-06T03:40:14.294Z,98394.59
2024-01-06T03:42:40.865Z,98399.47
2024-01-06T03:45:08.101Z,98402.41
2024-01-06T03:47:34.763Z,98405.41
2024-01-06T03:50:01.300Z,98394.97
2024-01-06T03:52:27.782Z,98398.47
2024-01-06T03:54:55.925Z,98404.41
2024-01-06T03:57:23.623Z,98407.09
2024-01-06T03:59:50.152Z,98403.88
2024-01-06T04:02:16.667Z,98409.03
2024-01-06T04:04:43.365Z,98402.16
2024-01-06T04:07:09.930Z,98415.34
2024-01-06T04:09:36.526Z,98402.72
2024-01-06T04:12:03.448Z,98400.84
2024-01-06T04:14:29.997Z,98407.22
2024-01-06T04:16:57.705Z,98410.72
2024-01-06T04:19:24.856Z,98413.09
2024-01-06T04:21:52.214Z,98408.03
2024-01-06T04:24:19.215Z,98405.06
2024-01-06T04:26:47.067Z,98405.06
2024-01-06T04:29:13.878Z,98413.09
2024-01-06T04:31:42.392Z,98405.63
2024-01-06T04:34:09.294Z,98406.22
2024-01-06T04:36:36.069Z,98406.22
2024-01-06T04:39:02.674Z,98404.13
2024-01-06T04:41:29.228Z,98405.22
2024-01-06T04:43:55.746Z,98398.25
2024-01-06T04:46:22.567Z,98405.78
2024-01-06T04:48:49.217Z,98399.63
2024-01-06T04:51:16.670Z,98402.03
2024-01-06T04:53:43.289Z,98399.63
2024-01-06T04:56:09.820Z,98404.19
2024-01-06T04:58:36.339Z,98402.81
2024-01-06T05:01:03.501Z,98405.78
2024-01-06T05:03:30.384Z,98411.66
2024-01-06T05:05:57.123Z,98409.56
2024-01-06T05:08:23.827Z,98421.94
2024-01-06T05:10:50.582Z,98408.47
2024-01-06T05:13:18.451Z,98429.34
2024-01-06T05:15:45.039Z,98425.66
2024-01-06T05:18:11.809Z,98427.25
2024-01-06T05:20:38.405Z,98436.31
2024-01-06T05:23:05.053Z,98432.53
2024-01-06T05:25:31.635Z,98438.63
2024-01-06T05:27:58.431Z,98434.06
2024-01-06T05:30:25.140Z,98424.91
2024-01-06T05:32:51.966Z,98424.91
2024-01-06T05:35:18.560Z,98426.81
2024-01-06T05:37:45.202Z,98432.38
2024-01-06T05:40:12.776Z,98436.16
2024-01-06T05:42:39.602Z,98438.84
2024-01-06T05:45:06.660Z,98433.69
2024-01-06T05:47:33.666Z,98443.84
2024-01-06T05:50:00.506Z,98438.19
2024-01-06T05:52:27.137Z,98440.81
2024-01-06T05:54:53.848Z,98438.66
2024-01-06T05:57:20.624Z,98441.00
2024-01-06T05:59:47.191Z,98441.44
2024-01-06T06:02:13.799Z,98450.97
2024-01-06T06:04:40.493Z,98455.56
2024-01-06T06:07:07.122Z,98468.88
2024-01-06T06:09:35.769Z,98468.41
2024-01-06T06:12:02.484Z,98466.97
2024-01-06T06:14:30.458Z,98466.16
2024-01-06T06:16:58.007Z,98477.53
2024-01-06T06:19:24.955Z,98468.03
2024-01-06T06:21:51.763Z,98477.16
2024-01-06T06:24:18.451Z,98479.63
2024-01-06T06:26:45.021Z,98475.25
2024-01-06T06:29:11.594Z,98484.88
2024-01-06T06:31:38.257Z,98493.06
2024-01-06T06:34:08.671Z,98496.44
2024-01-06T06:36:36.196Z,98510.94
2024-01-06T06:39:05.252Z,98512.91
2024-01-06T06:41:32.002Z,98509.72
2024-01-06T06:43:58.763Z,98511.88
2024-01-06T06:46:25.551Z,98512.75
2024-01-06T06:48:52.209Z,98518.94
2024-01-06T06:51:18.778Z,98515.94
2024-01-06T06:53:46.091Z,98511.38
2024-01-06T06:56:15.414Z,98520.53
2024-01-06T06:58:41.946Z,98524.31
2024-01-06T07:01:08.710Z,98531.25
2024-01-06T07:03:35.510Z,98531.25
2024-01-06T07:06:02.113Z,98535.81
2024-01-06T07:08:28.725Z,98534.00
2024-01-06T07:10:55.248Z,98539.59
2024-01-06T07:13:21.747Z,98535.81
2024-01-06T07:15:48.996Z,98538.22
2024-01-06T07:18:15.688Z,98535.03
2024-01-06T07:20:42.484Z,98530.22
2024-01-06T07:23:09.021Z,98538.28
2024-01-06T07:25:35.530Z,98541.50
2024-01-06T07:28:02.237Z,98555.19
2024-01-06T07:30:28.886Z,98553.28
2024-01-06T07:32:55.496Z,98546.31
2024-01-06T07:35:21.976Z,98561.88
2024-01-06T07:37:48.549Z,98551.16
2024-01-06T07:40:17.623Z,98572.03
2024-01-06T07:42:45.040Z,98558.66
2024-01-06T07:45:11.744Z,98564.03
2024-01-06T07:47:39.686Z,98567.81
2024-01-06T07:50:06.892Z,98582.31
2024-01-06T07:52:33.985Z,98578.50
2024-01-06T07:55:00.727Z,98589.16
2024-01-06T07:57:27.396Z,98586.63
2024-01-06T07:59:53.900Z,98595.47
2024-01-06T08:02:20.390Z,98598.66
2024-01-06T08:04:47.134Z,98606.13
2024-01-06T08:07:14.920Z,98607.44
2024-01-06T08:09:42.301Z,98616.31
2024-01-06T08:12:09.002Z,98607.97
2024-01-06T08:14:35.647Z,98611.97
2024-01-06T08:17:02.162Z,98623.56
2024-01-06T08:19:31.739Z,98613.13
2024-01-06T08:21:58.384Z,98622.25
2024-01-06T08:24:25.760Z,98620.28
2024-01-06T08:26:52.253Z,98629.69
2024-01-06T08:29:20.798Z,98633.59
2024-01-06T08:31:47.558Z,98635.47
2024-01-06T08:34:14.500Z,98631.28
2024-01-06T08:36:42.299Z,98643.38
2024-01-06T08:39:09.590Z,98635.13
2024-01-06T08:41:36.146Z,98639.41
2024-01-06T08:44:02.704Z,98644.78
2024-01-06T08:46:29.218Z,98642.59
2024-01-06T08:48:55.809Z,98648.25
2024-01-06T08:51:22.693Z,98649.63
2024-01-06T08:53:49.229Z,98653.09
2024-01-06T08:56:17.233Z,98647.16
2024-01-06T08:58:43.751Z,98656.59
2024-01-06T09:01:10.646Z,98655.03
2024-01-06T09:03:37.313Z,98658.88
2024-01-06T09:06:05.294Z,98656.78
2024-01-06T09:08:32.146Z,98659.97
2024-01-06T09:10:59.530Z,98655.13
2024-01-06T09:13:26.359Z,98659.91
2024-01-06T09:15:53.149Z,98650.50
2024-01-06T09:18:19.960Z,98662.75
2024-01-06T09:20:49.795Z,98662.81
2024-01-06T09:23:17.470Z,98676.53
2024-01-06T09:25:44.124Z,98672.75
2024-01-06T09:28:11.964Z,98680.78
2024-01-06T09:30:38.838Z,98686.16
2024-01-06T09:33:05.606Z,98690.94
2024-01-06T09:35:32.119Z,98688.19
2024-01-06T09:37:58.736Z,98691.03
2024-01-06T09:40:25.683Z,98699.34
2024-01-06T09:42:52.918Z,98693.97
2024-01-06T09:45:19.563Z,98697.19
2024-01-06T09:47:50.801Z,98696.63
2024-01-06T09:50:21.325Z,98688.03
2024-01-06T09:52:56.523Z,98691.09
2024-01-06T09:55:27.261Z,98699.16
2024-01-06T09:57:54.925Z,98691.88
2024-01-06T10:00:22.339Z,98698.56
2024-01-06T10:02:52.374Z,98704.16
2024-01-06T10:05:19.601Z,98710.91
2024-01-06T10:07:46.522Z,98702.00
2024-01-06T10:10:13.942Z,98705.75
2024-01-06T10:12:41.750Z,98707.88
2024-01-06T10:15:09.633Z,98704.16
2024-01-06T10:17:40.866Z,98704.69
2024-01-06T10:20:10.751Z,98700.69
2024-01-06T10:22:38.509Z,98704.97
2024-01-06T10:25:12.214Z,98704.16
2024-01-06T10:27:40.885Z,98700.38
2024-01-06T10:30:09.128Z,98706.22
2024-01-06T10:32:37.936Z,98699.94
2024-01-06T10:35:07.462Z,98694.53
2024-01-06T10:37:34.068Z,98700.66
2024-01-06T10:40:11.827Z,98702.63
2024-01-06T10:42:41.977Z,98699.25
2024-01-06T10:45:13.708Z,98698.91
2024-01-06T10:47:44.510Z,98702.41
2024-01-06T10:50:11.863Z,98705.69
2024-01-06T10:52:39.853Z,98701.91
2024-01-06T10:55:06.995Z,98696.94
2024-01-06T10:57:34.863Z,98694.75
2024-01-06T11:00:02.178Z,98705.53
2024-01-06T11:02:29.309Z,98700.31
2024-01-06T11:04:55.828Z,98708.41
2024-01-06T11:07:24.695Z,98706.53
2024-01-06T11:10:01.696Z,98708.88
2024-01-06T11:12:28.608Z,98701.91
2024-01-06T11:14:55.610Z,98708.94
2024-01-06T11:17:55.551Z,98702.41
2024-01-06T11:20:23.781Z,98700.72
2024-01-06T11:22:51.851Z,98700.13
2024-01-06T11:25:21.184Z,98696.88
2024-01-06T11:27:51.701Z,98697.97
2024-01-06T11:30:23.041Z,98699.56
2024-01-06T11:32:51.363Z,98699.97
2024-01-06T11:35:20.791Z,98702.59
2024-01-06T11:37:47.297Z,98702.97
2024-01-06T11:40:22.621Z,98705.44
2024-01-06T11:42:57.262Z,98704.34
2024-01-06T11:45:26.025Z,98704.34
2024-01-06T11:47:58.180Z,98702.56
2024-01-06T11:50:24.837Z,98698.47
2024-01-06T11:52:52.125Z,98699.78
2024-01-06T11:55:20.061Z,98691.72
2024-01-06T11:57:46.789Z,98698.97
2024-01-06T12:00:15.516Z,98693.81
2024-01-06T12:02:42.604Z,98691.63
2024-01-06T12:05:19.231Z,98698.31
2024-01-06T12:07:59.617Z,98693.00
2024-01-06T12:10:27.891Z,98680.22
2024-01-06T12:12:59.803Z,98686.34
2024-01-06T12:15:27.512Z,98684.06
2024-01-06T12:17:54.157Z,98674.63
2024-01-06T12:20:22.109Z,98684.28
2024-01-06T12:22:48.959Z,98679.69
2024-01-06T12:25:16.738Z,98673.16
2024-01-06T12:27:44.564Z,98669.56
2024-01-06T12:30:17.684Z,98668.41
2024-01-06T12:32:46.570Z,98668.41
2024-01-06T12:35:13.734Z,98663.72
2024-01-06T12:37:42.565Z,98661.22
2024-01-06T12:40:14.361Z,98673.00
2024-01-06T12:42:41.049Z,98666.84
2024-01-06T12:45:08.080Z,98666.72
2024-01-06T12:47:35.178Z,98672.47
2024-01-06T12:50:01.823Z,98667.59
2024-01-06T12:52:28.401Z,98672.19
2024-01-06T12:54:54.959Z,98668.97
2024-01-06T12:57:21.667Z,98672.19
2024-01-06T12:59:48.667Z,98685.09
2024-01-06T13:02:15.268Z,98681.31
2024-01-06T13:04:41.880Z,98681.72
2024-01-06T13:07:08.528Z,98686.38
2024-01-06T13:09:35.330Z,98687.47
2024-01-06T13:12:02.131Z,98686.47
2024-01-06T13:14:30.983Z,98683.78
2024-01-06T13:16:57.553Z,98685.06
2024-01-06T13:19:24.690Z,98691.16
2024-01-06T13:21:51.354Z,98686.09
2024-01-06T13:24:18.020Z,98686.38
2024-01-06T13:26:44.572Z,98688.19
2024-01-06T13:29:11.121Z,98691.06
2024-01-06T13:31:38.490Z,98688.09
2024-01-06T13:34:07.011Z,98686.19
2024-01-06T13:36:33.633Z,98689.91
2024-01-06T13:39:01.047Z,98695.09
2024-01-06T13:41:28.438Z,98694.25
2024-01-06T13:43:55.645Z,98703.53
2024-01-06T13:46:22.169Z,98709.41
2024-01-06T13:48:48.888Z,98704.25
2024-01-06T13:51:15.547Z,98708.81
2024-01-06T13:53:42.318Z,98712.41
2024-01-06T13:56:09.116Z,98714.00
2024-01-06T13:58:39.637Z,98719.75
2024-01-06T14:01:06.332Z,98718.50
2024-01-06T14:03:33.940Z,98726.66
2024-01-06T14:06:00.926Z,98722.88
2024-01-06T14:08:27.581Z,98730.94
2024-01-06T14:10:54.164Z,98730.13
2024-01-06T14:13:20.665Z,98732.81
2024-01-06T14:15:47.309Z,98741.41
2024-01-06T14:18:16.006Z,98744.09
2024-01-06T14:20:43.347Z,98746.59
2024-01-06T14:23:11.775Z,98744.16
2024-01-06T14:25:38.338Z,98744.75
2024-01-06T14:28:07.111Z,98740.47
2024-01-06T14:30:33.891Z,98743.75
2024-01-06T14:33:01.015Z,98744.25
2024-01-06T14:35:27.697Z,98742.66
2024-01-06T14:37:55.401Z,98743.53
2024-01-06T14:40:22.025Z,98746.50
2024-01-06T14:42:48.776Z,98748.13
2024-01-06T14:45:15.734Z,98751.91
2024-01-06T14:47:42.379Z,98754.78
2024-01-06T14:50:09.357Z,98757.09
2024-01-06T14:52:35.911Z,98758.50
2024-01-06T14:55:02.524Z,98760.38
2024-01-06T14:57:29.155Z,98764.91
2024-01-06T14:59:55.690Z,98767.78
2024-01-06T15:02:22.181Z,98775.34
2024-01-06T15:04:48.973Z,98771.06
2024-01-06T15:07:15.664Z,98778.03
2024-01-06T15:09:43.003Z,98778.03
2024-01-06T15:12:09.812Z,98775.44
2024-01-06T15:14:36.645Z,98777.34
2024-01-06T15:17:03.313Z,98783.78
2024-01-06T15:19:32.322Z,98784.16
2024-01-06T15:21:58.959Z,98795.03
2024-01-06T15:24:25.728Z,98794.59
2024-01-06T15:26:53.882Z,98805.91
2024-01-06T15:29:21.389Z,98803.50
2024-01-06T15:31:48.120Z,98807.63
2024-01-06T15:34:15.138Z,98814.13
2024-01-06T15:36:41.878Z,98816.06
2024-01-06T15:39:08.524Z,98823.03
2024-01-06T15:41:35.123Z,98815.78
2024-01-06T15:44:01.602Z,98820.66
2024-01-06T15:46:28.101Z,98816.88
2024-01-06T15:48:54.889Z,98821.69
2024-01-06T15:51:24.059Z,98829.28
2024-01-06T15:53:50.800Z,98824.50
2024-01-06T15:56:17.347Z,98831.16
2024-01-06T15:58:43.910Z,98837.34
2024-01-06T16:01:10.680Z,98840.53
2024-01-06T16:03:37.299Z,98842.22
2024-01-06T16:06:04.771Z,98846.50
2024-01-06T16:08:31.352Z,98843.56
2024-01-06T16:10:57.927Z,98852.19
2024-01-06T16:13:24.457Z,98843.91
2024-01-06T16:15:52.272Z,98855.72
2024-01-06T16:18:20.713Z,98849.22
2024-01-06T16:20:48.127Z,98844.13
2024-01-06T16:23:17.028Z,98846.59
2024-01-06T16:25:44.131Z,98858.94
2024-01-06T16:28:12.815Z,98860.59
2024-01-06T16:30:40.312Z,98861.16
2024-01-06T16:33:08.025Z,98863.03
2024-01-06T16:35:35.702Z,98861.16
2024-01-06T16:38:03.000Z,98871.38
2024-01-06T16:40:30.119Z,98862.81
2024-01-06T16:42:56.656Z,98864.22
2024-01-06T16:45:23.298Z,98872.84
2024-01-06T16:47:50.325Z,98875.03
2024-01-06T16:50:16.957Z,98873.69
2024-01-06T16:52:43.442Z,98873.69
2024-01-06T16:55:10.192Z,98867.75
2024-01-06T16:57:36.763Z,98877.41
2024-01-06T17:00:05.939Z,98876.69
2024-01-06T17:02:32.695Z,98891.00
2024-01-06T17:04:59.412Z,98894.03
2024-01-06T17:07:26.429Z,98890.63
2024-01-06T17:09:53.071Z,98896.81
2024-01-06T17:12:22.752Z,98893.88
2024-01-06T17:14:49.734Z,98910.53
2024-01-06T17:17:16.310Z,98896.88
2024-01-06T17:19:43.064Z,98903.09
2024-01-06T17:22:09.697Z,98890.78
2024-01-06T17:24:37.099Z,98899.91
2024-01-06T17:27:03.978Z,98911.47
2024-01-06T17:29:31.669Z,98907.97
2024-01-06T17:31:59.057Z,98910.63
2024-01-06T17:34:25.744Z,98920.59
2024-01-06T17:36:52.374Z,98912.78
2024-01-06T17:39:19.140Z,98907.44
2024-01-06T17:41:53.300Z,98911.19
2024-01-06T17:44:26.069Z,98918.47
2024-01-06T17:46:52.564Z,98906.16
2024-01-06T17:49:19.304Z,98917.69
2024-01-06T17:51:46.016Z,98917.13
2024-01-06T17:54:13.700Z,98926.25
2024-01-06T17:56:40.293Z,98932.94
2024-01-06T17:59:07.009Z,98933.75
2024-01-06T18:01:33.611Z,98936.97
2024-01-06T18:04:00.313Z,98940.47
2024-01-06T18:06:27.157Z,98940.22
2024-01-06T18:08:53.832Z,98936.44
2024-01-06T18:11:20.437Z,98944.50
2024-01-06T18:13:46.961Z,98940.22
2024-01-06T18:16:15.052Z,98941.84
2024-01-06T18:18:41.813Z,98941.84
2024-01-06T18:21:09.978Z,98946.16
2024-01-06T18:23:36.606Z,98953.13
2024-01-06T18:26:04.163Z,98945.09
2024-01-06T18:28:31.213Z,98962.56
2024-01-06T18:30:57.913Z,98962.28
2024-01-06T18:33:24.705Z,98960.97
2024-01-06T18:35:51.243Z,98963.97
2024-01-06T18:38:17.890Z,98960.75
2024-01-06T18:40:44.377Z,98959.69
2024-01-06T18:43:10.990Z,98964.53
2024-01-06T18:45:37.714Z,98966.66
2024-01-06T18:48:04.708Z,98958.91
2024-01-06T18:50:31.322Z,98965.06
2024-01-06T18:52:57.880Z,98967.50
2024-01-06T18:55:24.492Z,98964.53
2024-01-06T18:57:51.364Z,98968.56
2024-01-06T19:00:20.498Z,98972.59
2024-01-06T19:02:49.096Z,98974.75
2024-01-06T19:05:15.884Z,98966.16
2024-01-06T19:07:44.871Z,98970.16
2024-01-06T19:10:12.500Z,98963.47
2024-01-06T19:12:39.187Z,98976.88
2024-01-06T19:15:05.947Z,98966.94
2024-01-06T19:17:32.510Z,98968.81
2024-01-06T19:20:00.950Z,98976.28
2024-01-06T19:22:27.602Z,98974.69
2024-01-06T19:24:55.588Z,98977.88
2024-01-06T19:27:22.293Z,98985.38
2024-01-06T19:29:48.799Z,98987.50
2024-01-06T19:32:16.709Z,98976.78
2024-01-06T19:34:43.691Z,98984.56
2024-01-06T19:37:10.490Z,98990.69
2024-01-06T19:39:37.211Z,98979.13
2024-01-06T19:42:04.554Z,98987.97
2024-01-06T19:44:31.234Z,98994.94
2024-01-06T19:47:01.587Z,99000.31
2024-01-06T19:49:28.588Z,99006.19
2024-01-06T19:51:55.254Z,98999.47
2024-01-06T19:54:21.965Z,98993.34
2024-01-06T19:56:48.610Z,99007.28
2024-01-06T19:59:15.239Z,98996.81
2024-01-06T20:01:41.926Z,99001.66
2024-01-06T20:04:08.594Z,98999.78
2024-01-06T20:06:35.754Z,99002.16
2024-01-06T20:09:02.602Z,99012.63
2024-01-06T20:11:29.146Z,99009.44
2024-01-06T20:13:56.557Z,99003.00
2024-01-06T20:16:23.126Z,99012.69
2024-01-06T20:18:49.804Z,99009.97
2024-01-06T20:21:16.600Z,99015.34
2024-01-06T20:23:43.253Z,99013.75
2024-01-06T20:26:10.647Z,99006.22
2024-01-06T20:28:37.151Z,99004.63
2024-01-06T20:31:04.320Z,98998.97
2024-01-06T20:33:34.540Z,99005.66
2024-01-06T20:36:02.070Z,99011.59
2024-01-06T20:38:28.764Z,99011.06
2024-01-06T20:40:55.328Z,99015.34
2024-01-06T20:43:21.895Z,99017.50
2024-01-06T20:45:49.978Z,99012.69
2024-01-06T20:48:16.941Z,99015.91
2024-01-06T20:50:43.530Z,99012.94
2024-01-06T20:53:10.740Z,99017.50
2024-01-06T20:55:37.554Z,99015.91
2024-01-06T20:58:04.366Z,99019.09
2024-01-06T21:00:34.718Z,99018.28
2024-01-06T21:03:02.395Z,99019.09
2024-01-06T21:05:29.378Z,99017.50
2024-01-06T21:07:55.964Z,99008.09
2024-01-06T21:10:23.024Z,99018.56
2024-01-06T21:12:49.563Z,99008.31
2024-01-06T21:15:16.914Z,99006.97
2024-01-06T21:17:44.612Z,99007.25
2024-01-06T21:20:11.944Z,99003.50
2024-01-06T21:22:38.818Z,99005.41
2024-01-06T21:25:06.704Z,99016.72
2024-01-06T21:27:36.992Z,99011.59
2024-01-06T21:30:06.538Z,99010.00
2024-01-06T21:32:33.884Z,99017.25
2024-01-06T21:35:02.819Z,99013.25
2024-01-06T21:37:29.800Z,99005.75
2024-01-06T21:39:56.670Z,99016.78
2024-01-06T21:42:23.296Z,99016.78
2024-01-06T21:44:50.001Z,99022.41
2024-01-06T21:47:16.549Z,99017.88
2024-01-06T21:49:43.189Z,99016.00
2024-01-06T21:52:10.538Z,99014.91
2024-01-06T21:54:38.070Z,99015.72
2024-01-06T21:57:05.020Z,99013.84
2024-01-06T21:59:31.674Z,99009.56
2024-01-06T22:01:58.569Z,99019.22
2024-01-06T22:04:25.758Z,99018.66
2024-01-06T22:06:52.627Z,99017.59
2024-01-06T22:09:20.070Z,99022.97
2024-01-06T22:11:48.154Z,99024.59
2024-01-06T22:14:15.075Z,99024.59
2024-01-06T22:16:43.145Z,99025.41
2024-01-06T22:19:11.402Z,99027.56
2024-01-06T22:21:44.188Z,99029.44
2024-01-06T22:24:12.073Z,99024.63
2024-01-06T22:26:38.650Z,99028.66
2024-01-06T22:29:05.239Z,99021.38
2024-01-06T22:31:32.209Z,99029.97
2024-01-06T22:33:59.940Z,99029.69
2024-01-06T22:36:26.787Z,99040.69
2024-01-06T22:38:55.982Z,99032.69
2024-01-06T22:41:23.833Z,99035.88
2024-01-06T22:43:50.417Z,99038.00
2024-01-06T22:46:16.978Z,99033.19
2024-01-06T22:48:44.329Z,99042.31
2024-01-06T22:51:11.273Z,99042.31
2024-01-06T22:53:37.820Z,99042.84
2024-01-06T22:56:07.375Z,99046.59
2024-01-06T22:58:37.453Z,99046.84
2024-01-06T23:01:05.839Z,99054.09
2024-01-06T23:03:33.013Z,99047.13
2024-01-06T23:05:59.623Z,99048.19
2024-01-06T23:08:26.682Z,99051.13
2024-01-06T23:10:54.542Z,99050.09
2024-01-06T23:13:22.273Z,99051.13
2024-01-06T23:15:48.997Z,99048.75
2024-01-06T23:18:16.124Z,99058.91
2024-01-06T23:20:42.862Z,99060.53
2024-01-06T23:23:09.502Z,99060.53
2024-01-06T23:25:36.016Z,99063.50
2024-01-06T23:28:02.543Z,99062.38
2024-01-06T23:30:29.186Z,99057.03
2024-01-06T23:32:55.860Z,99071.78
2024-01-06T23:35:22.524Z,99072.84
2024-01-06T23:37:51.758Z,99077.38
2024-01-06T23:40:18.683Z,99075.00
2024-01-06T23:42:45.393Z,99078.22
2024-01-06T23:45:12.034Z,99082.75
2024-01-06T23:47:38.600Z,99080.34
2024-01-06T23:50:06.098Z,99085.16
2024-01-06T23:52:32.712Z,99079.81
2024-01-06T23:54:59.342Z,99085.16
2024-01-06T23:57:26.451Z,99082.50
2024-01-06T23:59:53.066Z,99081.97
